sensor_id;sensor_type;location;lat;lon;timestamp;pressure;altitude;pressure_sealevel;temperature;humidity
2875;BME280;1445;52.600;13.328;2024-03-08T00:01:28;79514.25;;;-145.99;100.00
2875;BME280;1445;52.600;13.328;2024-03-08T00:03:53;79516.34;;;-145.99;100.00
2875;BME280;1445;52.600;13.328;2024-03-08T00:06:19;79531.06;;;-145.99;100.00
2875;BME280;1445;52.600;13.328;2024-03-08T00:08:44;79526.84;;;-145.99;100.00
2875;BME280;1445;52.600;13.328;2024-03-08T00:11:09;79541.56;;;-145.99;100.00
2875;BME280;1445;52.600;13.328;2024-03-08T00:13:35;79549.97;;;-145.99;100.00
2875;BME280;1445;52.600;13.328;2024-03-08T00:16:01;79549.97;;;-145.99;100.00
2875;BME280;1445;52.600;13.328;2024-03-08T00:18:27;79547.88;;;-145.99;100.00
2875;BME280;1445;52.600;13.328;2024-03-08T00:20:52;79566.78;;;-145.99;100.00
2875;BME280;1445;52.600;13.328;2024-03-08T00:23:18;79587.81;;;-145.99;100.00
2875;BME280;1445;52.600;13.328;2024-03-08T00:25:43;79585.69;;;-145.99;100.00
2875;BME280;1445;52.600;13.328;2024-03-08T00:28:09;79556.28;;;-145.99;100.00
2875;BME280;1445;52.600;13.328;2024-03-08T00:30:38;79562.59;;;-145.99;100.00
2875;BME280;1445;52.600;13.328;2024-03-08T00:33:04;79566.78;;;-145.99;100.00
2875;BME280;1445;52.600;13.328;2024-03-08T00:35:29;79564.69;;;-145.99;100.00
2875;BME280;1445;52.600;13.328;2024-03-08T00:37:55;79558.38;;;-145.99;100.00
2875;BME280;1445;52.600;13.328;2024-03-08T00:40:22;79564.69;;;-145.99;100.00
2875;BME280;1445;52.600;13.328;2024-03-08T00:42:47;79577.28;;;-145.99;100.00
2875;BME280;1445;52.600;13.328;2024-03-08T00:45:13;79568.88;;;-145.99;100.00
2875;BME280;1445;52.600;13.328;2024-03-08T00:47:38;79577.28;;;-145.99;100.00
2875;BME280;1445;52.600;13.328;2024-03-08T00:50:04;79583.59;;;-145.99;100.00
2875;BME280;1445;52.600;13.328;2024-03-08T00:52:30;79592.00;;;-145.99;100.00
2875;BME280;1445;52.600;13.328;2024-03-08T00:54:55;79592.00;;;-145.99;100.00
2875;BME280;1445;52.600;13.328;2024-03-08T00:57:21;79581.50;;;-145.99;100.00
2875;BME280;1445;52.600;13.328;2024-03-08T00:59:47;79587.81;;;-145.99;100.00
2875;BME280;1445;52.600;13.328;2024-03-08T01:02:13;79573.09;;;-145.99;100.00
2875;BME280;1445;52.600;13.328;2024-03-08T01:04:38;79604.63;;;-145.99;100.00
2875;BME280;1445;52.600;13.328;2024-03-08T01:07:04;79602.50;;;-145.99;100.00
2875;BME280;1445;52.600;13.328;2024-03-08T01:09:29;79594.09;;;-145.99;100.00
2875;BME280;1445;52.600;13.328;2024-03-08T01:11:55;79581.50;;;-145.99;100.00
2875;BME280;1445;52.600;13.328;2024-03-08T01:14:22;79589.91;;;-145.99;100.00
2875;BME280;1445;52.600;13.328;2024-03-08T01:16:56;79613.03;;;-145.99;100.00
2875;BME280;1445;52.600;13.328;2024-03-08T01:19:21;79606.72;;;-145.99;100.00
2875;BME280;1445;52.600;13.328;2024-03-08T01:21:47;79613.03;;;-145.99;100.00
2875;BME280;1445;52.600;13.328;2024-03-08T01:24:12;79604.63;;;-145.99;100.00
2875;BME280;1445;52.600;13.328;2024-03-08T01:26:37;79621.44;;;-145.99;100.00
2875;BME280;1445;52.600;13.328;2024-03-08T01:29:03;79627.72;;;-145.99;100.00
2875;BME280;1445;52.600;13.328;2024-03-08T01:31:32;79617.22;;;-145.99;100.00
2875;BME280;1445;52.600;13.328;2024-03-08T01:33:58;79636.13;;;-145.99;100.00
2875;BME280;1445;52.600;13.328;2024-03-08T01:36:24;79625.63;;;-145.99;100.00
2875;BME280;1445;52.600;13.328;2024-03-08T01:38:50;79640.34;;;-145.99;100.00
2875;BME280;1445;52.600;13.328;2024-03-08T01:41:15;79644.53;;;-145.99;100.00
2875;BME280;1445;52.600;13.328;2024-03-08T01:43:43;79655.06;;;-145.99;100.00
2875;BME280;1445;52.600;13.328;2024-03-08T01:46:09;79650.84;;;-145.99;100.00
2875;BME280;1445;52.600;13.328;2024-03-08T01:48:35;79663.47;;;-145.99;100.00
2875;BME280;1445;52.600;13.328;2024-03-08T01:51:01;79648.75;;;-145.99;100.00
2875;BME280;1445;52.600;13.328;2024-03-08T01:53:28;79642.44;;;-145.99;100.00
2875;BME280;1445;52.600;13.328;2024-03-08T01:55:56;79682.38;;;-145.99;100.00
2875;BME280;1445;52.600;13.328;2024-03-08T01:58:22;79657.16;;;-145.99;100.00
2875;BME280;1445;52.600;13.328;2024-03-08T02:00:49;79657.16;;;-145.99;100.00
2875;BME280;1445;52.600;13.328;2024-03-08T02:03:17;79667.66;;;-145.99;100.00
2875;BME280;1445;52.600;13.328;2024-03-08T02:05:43;79671.88;;;-145.99;100.00
2875;BME280;1445;52.600;13.328;2024-03-08T02:08:09;79686.56;;;-145.99;100.00
2875;BME280;1445;52.600;13.328;2024-03-08T02:10:43;79682.38;;;-145.99;100.00
2875;BME280;1445;52.600;13.328;2024-03-08T02:13:10;79680.28;;;-145.99;100.00
2875;BME280;1445;52.600;13.328;2024-03-08T02:18:21;79697.09;;;-145.99;100.00
2875;BME280;1445;52.600;13.328;2024-03-08T02:20:47;79703.38;;;-145.99;100.00
2875;BME280;1445;52.600;13.328;2024-03-08T02:23:14;79703.38;;;-145.99;100.00
2875;BME280;1445;52.600;13.328;2024-03-08T02:25:40;79692.88;;;-145.99;100.00
2875;BME280;1445;52.600;13.328;2024-03-08T02:28:10;79686.56;;;-145.99;100.00
2875;BME280;1445;52.600;13.328;2024-03-08T02:30:36;79692.88;;;-145.99;100.00
2875;BME280;1445;52.600;13.328;2024-03-08T02:33:01;79678.16;;;-145.99;100.00
2875;BME280;1445;52.600;13.328;2024-03-08T02:35:27;79688.69;;;-145.99;100.00
2875;BME280;1445;52.600;13.328;2024-03-08T02:37:52;79716.00;;;-145.99;100.00
2875;BME280;1445;52.600;13.328;2024-03-08T02:40:18;79694.97;;;-145.99;100.00
2875;BME280;1445;52.600;13.328;2024-03-08T02:42:43;79686.56;;;-145.99;100.00
2875;BME280;1445;52.600;13.328;2024-03-08T02:45:10;79711.78;;;-145.99;100.00
2875;BME280;1445;52.600;13.328;2024-03-08T02:47:35;79692.88;;;-145.99;100.00
2875;BME280;1445;52.600;13.328;2024-03-08T02:50:01;79701.28;;;-145.99;100.00
2875;BME280;1445;52.600;13.328;2024-03-08T02:52:27;79690.78;;;-145.99;100.00
2875;BME280;1445;52.600;13.328;2024-03-08T02:54:52;79701.28;;;-145.99;100.00
2875;BME280;1445;52.600;13.328;2024-03-08T02:57:17;79703.38;;;-145.99;100.00
2875;BME280;1445;52.600;13.328;2024-03-08T02:59:43;79713.91;;;-145.99;100.00
2875;BME280;1445;52.600;13.328;2024-03-08T03:02:09;79692.88;;;-145.99;100.00
2875;BME280;1445;52.600;13.328;2024-03-08T03:04:35;79686.56;;;-145.99;100.00
2875;BME280;1445;52.600;13.328;2024-03-08T03:07:01;79678.16;;;-145.99;100.00
2875;BME280;1445;52.600;13.328;2024-03-08T03:09:26;79676.06;;;-145.99;100.00
2875;BME280;1445;52.600;13.328;2024-03-08T03:11:55;79678.16;;;-145.99;100.00
2875;BME280;1445;52.600;13.328;2024-03-08T03:14:21;79690.78;;;-145.99;100.00
2875;BME280;1445;52.600;13.328;2024-03-08T03:16:47;79699.19;;;-145.99;100.00
2875;BME280;1445;52.600;13.328;2024-03-08T03:19:12;79692.88;;;-145.99;100.00
2875;BME280;1445;52.600;13.328;2024-03-08T03:21:38;79682.38;;;-145.99;100.00
2875;BME280;1445;52.600;13.328;2024-03-08T03:24:04;79678.16;;;-145.99;100.00
2875;BME280;1445;52.600;13.328;2024-03-08T03:26:38;79676.06;;;-145.99;100.00
2875;BME280;1445;52.600;13.328;2024-03-08T03:29:06;79684.47;;;-145.99;100.00
2875;BME280;1445;52.600;13.328;2024-03-08T03:31:34;79686.56;;;-145.99;100.00
2875;BME280;1445;52.600;13.328;2024-03-08T03:33:59;79678.16;;;-145.99;100.00
2875;BME280;1445;52.600;13.328;2024-03-08T03:36:28;79671.88;;;-145.99;100.00
2875;BME280;1445;52.600;13.328;2024-03-08T03:38:54;79659.25;;;-145.99;100.00
2875;BME280;1445;52.600;13.328;2024-03-08T03:41:34;79665.56;;;-145.99;100.00
2875;BME280;1445;52.600;13.328;2024-03-08T03:44:00;79667.66;;;-145.99;100.00
2875;BME280;1445;52.600;13.328;2024-03-08T03:46:25;79669.75;;;-145.99;100.00
2875;BME280;1445;52.600;13.328;2024-03-08T03:48:52;79694.97;;;-145.99;100.00
2875;BME280;1445;52.600;13.328;2024-03-08T03:51:18;79694.97;;;-145.99;100.00
2875;BME280;1445;52.600;13.328;2024-03-08T03:53:44;79703.38;;;-145.99;100.00
2875;BME280;1445;52.600;13.328;2024-03-08T03:56:09;79724.41;;;-145.99;100.00
2875;BME280;1445;52.600;13.328;2024-03-08T03:58:36;79722.31;;;-145.99;100.00
2875;BME280;1445;52.600;13.328;2024-03-08T04:01:01;79726.50;;;-145.99;100.00
2875;BME280;1445;52.600;13.328;2024-03-08T04:03:26;79730.72;;;-145.99;100.00
2875;BME280;1445;52.600;13.328;2024-03-08T04:05:52;79745.41;;;-145.99;100.00
2875;BME280;1445;52.600;13.328;2024-03-08T04:08:17;79749.63;;;-145.99;100.00
2875;BME280;1445;52.600;13.328;2024-03-08T04:10:42;79758.03;;;-145.99;100.00
2875;BME280;1445;52.600;13.328;2024-03-08T04:13:08;79751.72;;;-145.99;100.00
2875;BME280;1445;52.600;13.328;2024-03-08T04:15:35;79762.22;;;-145.99;100.00
2875;BME280;1445;52.600;13.328;2024-03-08T04:18:00;79764.34;;;-145.99;100.00
2875;BME280;1445;52.600;13.328;2024-03-08T04:20:26;79753.81;;;-145.99;100.00
2875;BME280;1445;52.600;13.328;2024-03-08T04:22:51;79739.13;;;-145.99;100.00
2875;BME280;1445;52.600;13.328;2024-03-08T04:25:17;79737.00;;;-145.99;100.00
2875;BME280;1445;52.600;13.328;2024-03-08T04:27:43;79724.41;;;-145.99;100.00
2875;BME280;1445;52.600;13.328;2024-03-08T04:30:09;79739.13;;;-145.99;100.00
2875;BME280;1445;52.600;13.328;2024-03-08T04:32:35;79720.19;;;-145.99;100.00
2875;BME280;1445;52.600;13.328;2024-03-08T04:35:01;79737.00;;;-145.99;100.00
2875;BME280;1445;52.600;13.328;2024-03-08T04:37:27;79722.31;;;-145.99;100.00
2875;BME280;1445;52.600;13.328;2024-03-08T04:39:55;79724.41;;;-145.99;100.00
2875;BME280;1445;52.600;13.328;2024-03-08T04:42:20;79732.81;;;-145.99;100.00
2875;BME280;1445;52.600;13.328;2024-03-08T04:44:45;79726.50;;;-145.99;100.00
2875;BME280;1445;52.600;13.328;2024-03-08T04:47:11;79722.31;;;-145.99;100.00
2875;BME280;1445;52.600;13.328;2024-03-08T04:49:36;79734.91;;;-145.99;100.00
2875;BME280;1445;52.600;13.328;2024-03-08T04:52:03;79749.63;;;-145.99;100.00
2875;BME280;1445;52.600;13.328;2024-03-08T04:54:29;79745.41;;;-145.99;100.00
2875;BME280;1445;52.600;13.328;2024-03-08T04:56:54;79755.94;;;-145.99;100.00
2875;BME280;1445;52.600;13.328;2024-03-08T04:59:20;79753.81;;;-145.99;100.00
2875;BME280;1445;52.600;13.328;2024-03-08T05:01:45;79751.72;;;-145.99;100.00
2875;BME280;1445;52.600;13.328;2024-03-08T05:04:11;79747.53;;;-145.99;100.00
2875;BME280;1445;52.600;13.328;2024-03-08T05:06:36;79737.00;;;-145.99;100.00
2875;BME280;1445;52.600;13.328;2024-03-08T05:09:02;79737.00;;;-145.99;100.00
2875;BME280;1445;52.600;13.328;2024-03-08T05:11:39;79737.00;;;-145.99;100.00
2875;BME280;1445;52.600;13.328;2024-03-08T05:14:04;79749.63;;;-145.99;100.00
2875;BME280;1445;52.600;13.328;2024-03-08T05:16:30;79751.72;;;-145.99;100.00
2875;BME280;1445;52.600;13.328;2024-03-08T05:18:55;79753.81;;;-145.99;100.00
2875;BME280;1445;52.600;13.328;2024-03-08T05:21:22;79745.41;;;-145.99;100.00
2875;BME280;1445;52.600;13.328;2024-03-08T05:23:48;79747.53;;;-145.99;100.00
2875;BME280;1445;52.600;13.328;2024-03-08T05:26:16;79762.22;;;-145.99;100.00
2875;BME280;1445;52.600;13.328;2024-03-08T05:28:41;79760.13;;;-145.99;100.00
2875;BME280;1445;52.600;13.328;2024-03-08T05:31:07;79749.63;;;-145.99;100.00
2875;BME280;1445;52.600;13.328;2024-03-08T05:33:33;79749.63;;;-145.99;100.00
2875;BME280;1445;52.600;13.328;2024-03-08T05:36:00;79745.41;;;-145.99;100.00
2875;BME280;1445;52.600;13.328;2024-03-08T05:38:28;79747.53;;;-145.99;100.00
2875;BME280;1445;52.600;13.328;2024-03-08T05:40:54;79743.31;;;-145.99;100.00
2875;BME280;1445;52.600;13.328;2024-03-08T05:43:20;79730.72;;;-145.99;100.00
2875;BME280;1445;52.600;13.328;2024-03-08T05:45:47;79755.94;;;-145.99;100.00
2875;BME280;1445;52.600;13.328;2024-03-08T05:48:13;79745.41;;;-145.99;100.00
2875;BME280;1445;52.600;13.328;2024-03-08T05:50:38;79753.81;;;-145.99;100.00
2875;BME280;1445;52.600;13.328;2024-03-08T05:53:04;79743.31;;;-145.99;100.00
2875;BME280;1445;52.600;13.328;2024-03-08T05:55:32;79743.31;;;-145.99;100.00
2875;BME280;1445;52.600;13.328;2024-03-08T05:58:01;79751.72;;;-145.99;100.00
2875;BME280;1445;52.600;13.328;2024-03-08T06:00:27;79749.63;;;-145.99;100.00
2875;BME280;1445;52.600;13.328;2024-03-08T06:02:52;79741.22;;;-145.99;100.00
2875;BME280;1445;52.600;13.328;2024-03-08T06:05:18;79749.63;;;-145.99;100.00
2875;BME280;1445;52.600;13.328;2024-03-08T06:07:45;79743.31;;;-145.99;100.00
2875;BME280;1445;52.600;13.328;2024-03-08T06:10:11;79743.31;;;-145.99;100.00
2875;BME280;1445;52.600;13.328;2024-03-08T06:12:37;79747.53;;;-145.99;100.00
2875;BME280;1445;52.600;13.328;2024-03-08T06:15:10;79737.00;;;-145.99;100.00
2875;BME280;1445;52.600;13.328;2024-03-08T06:17:36;79753.81;;;-145.99;100.00
2875;BME280;1445;52.600;13.328;2024-03-08T06:20:05;79753.81;;;-145.99;100.00
2875;BME280;1445;52.600;13.328;2024-03-08T06:22:37;79749.63;;;-145.99;100.00
2875;BME280;1445;52.600;13.328;2024-03-08T06:25:04;79739.13;;;-145.99;100.00
2875;BME280;1445;52.600;13.328;2024-03-08T06:27:29;79734.91;;;-145.99;100.00
2875;BME280;1445;52.600;13.328;2024-03-08T06:29:54;79722.31;;;-145.99;100.00
2875;BME280;1445;52.600;13.328;2024-03-08T06:32:20;79720.19;;;-145.99;100.00
2875;BME280;1445;52.600;13.328;2024-03-08T06:34:45;79707.59;;;-145.99;100.00
2875;BME280;1445;52.600;13.328;2024-03-08T06:37:11;79697.09;;;-145.99;100.00
2875;BME280;1445;52.600;13.328;2024-03-08T06:39:36;79684.47;;;-145.99;100.00
2875;BME280;1445;52.600;13.328;2024-03-08T06:42:02;79678.16;;;-145.99;100.00
2875;BME280;1445;52.600;13.328;2024-03-08T06:44:27;79678.16;;;-145.99;100.00
2875;BME280;1445;52.600;13.328;2024-03-08T06:46:52;79669.75;;;-145.99;100.00
2875;BME280;1445;52.600;13.328;2024-03-08T06:49:18;79648.75;;;-145.99;100.00
2875;BME280;1445;52.600;13.328;2024-03-08T06:51:44;79640.34;;;-145.99;100.00
2875;BME280;1445;52.600;13.328;2024-03-08T06:54:10;79636.13;;;-145.99;100.00
2875;BME280;1445;52.600;13.328;2024-03-08T06:56:35;79627.72;;;-145.99;100.00
2875;BME280;1445;52.600;13.328;2024-03-08T06:59:01;79619.31;;;-145.99;100.00
2875;BME280;1445;52.600;13.328;2024-03-08T07:01:28;79619.31;;;-145.99;100.00
2875;BME280;1445;52.600;13.328;2024-03-08T07:03:57;79604.63;;;-145.99;100.00
2875;BME280;1445;52.600;13.328;2024-03-08T07:06:23;79575.19;;;-145.99;100.00
2875;BME280;1445;52.600;13.328;2024-03-08T07:08:49;79575.19;;;-145.99;100.00
2875;BME280;1445;52.600;13.328;2024-03-08T07:11:14;79573.09;;;-145.99;100.00
2875;BME280;1445;52.600;13.328;2024-03-08T07:13:45;79558.38;;;-145.99;100.00
2875;BME280;1445;52.600;13.328;2024-03-08T07:16:10;79560.47;;;-145.99;100.00
2875;BME280;1445;52.600;13.328;2024-03-08T07:18:37;79474.31;;;-145.99;100.00
2875;BME280;1445;52.600;13.328;2024-03-08T07:21:08;79287.28;;;-145.99;100.00
2875;BME280;1445;52.600;13.328;2024-03-08T07:23:34;79327.22;;;-145.99;100.00
2875;BME280;1445;52.600;13.328;2024-03-08T07:26:26;79350.34;;;-145.99;100.00
2875;BME280;1445;52.600;13.328;2024-03-08T07:28:51;79386.06;;;-145.99;100.00
2875;BME280;1445;52.600;13.328;2024-03-08T07:31:17;79367.16;;;-145.99;100.00
2875;BME280;1445;52.600;13.328;2024-03-08T07:33:52;79388.16;;;-145.99;100.00
2875;BME280;1445;52.600;13.328;2024-03-08T07:36:19;79392.38;;;-145.99;100.00
2875;BME280;1445;52.600;13.328;2024-03-08T07:38:44;79371.34;;;-145.99;100.00
2875;BME280;1445;52.600;13.328;2024-03-08T07:41:12;79371.34;;;-145.99;100.00
2875;BME280;1445;52.600;13.328;2024-03-08T07:43:38;79348.22;;;-145.99;100.00
2875;BME280;1445;52.600;13.328;2024-03-08T07:46:03;79341.94;;;-145.99;100.00
2875;BME280;1445;52.600;13.328;2024-03-08T07:48:29;79327.22;;;-145.99;100.00
2875;BME280;1445;52.600;13.328;2024-03-08T07:50:55;79331.41;;;-145.99;100.00
2875;BME280;1445;52.600;13.328;2024-03-08T07:53:21;79312.50;;;-145.99;100.00
2875;BME280;1445;52.600;13.328;2024-03-08T07:55:47;79308.31;;;-145.99;100.00
2875;BME280;1445;52.600;13.328;2024-03-08T07:58:12;79310.41;;;-145.99;100.00
2875;BME280;1445;52.600;13.328;2024-03-08T08:00:39;79289.41;;;-145.99;100.00
2875;BME280;1445;52.600;13.328;2024-03-08T08:03:04;79295.69;;;-145.99;100.00
2875;BME280;1445;52.600;13.328;2024-03-08T08:05:30;79266.28;;;-145.99;100.00
2875;BME280;1445;52.600;13.328;2024-03-08T08:08:03;79245.25;;;-145.99;100.00
2875;BME280;1445;52.600;13.328;2024-03-08T08:10:34;79232.66;;;-145.99;100.00
2875;BME280;1445;52.600;13.328;2024-03-08T08:12:59;79201.13;;;-145.99;100.00
2875;BME280;1445;52.600;13.328;2024-03-08T08:15:25;79196.94;;;-145.99;100.00
2875;BME280;1445;52.600;13.328;2024-03-08T08:17:50;79184.31;;;-145.99;100.00
2875;BME280;1445;52.600;13.328;2024-03-08T08:20:17;79161.22;;;-145.99;100.00
2875;BME280;1445;52.600;13.328;2024-03-08T08:22:43;79148.59;;;-145.99;100.00
2875;BME280;1445;52.600;13.328;2024-03-08T08:25:09;79117.09;;;-145.99;100.00
2875;BME280;1445;52.600;13.328;2024-03-08T08:27:38;79093.97;;;-145.99;100.00
2875;BME280;1445;52.600;13.328;2024-03-08T08:30:05;79100.28;;;-145.99;100.00
2875;BME280;1445;52.600;13.328;2024-03-08T08:32:34;79068.75;;;-145.99;100.00
2875;BME280;1445;52.600;13.328;2024-03-08T08:35:00;79051.94;;;-145.99;100.00
2875;BME280;1445;52.600;13.328;2024-03-08T08:37:25;79039.34;;;-145.99;100.00
2875;BME280;1445;52.600;13.328;2024-03-08T08:39:50;79041.44;;;-145.99;100.00
2875;BME280;1445;52.600;13.328;2024-03-08T08:42:16;79026.72;;;-145.99;100.00
2875;BME280;1445;52.600;13.328;2024-03-08T08:44:43;79009.94;;;-145.99;100.00
2875;BME280;1445;52.600;13.328;2024-03-08T08:47:08;78988.91;;;-145.99;100.00
2875;BME280;1445;52.600;13.328;2024-03-08T08:49:33;78974.22;;;-145.99;100.00
2875;BME280;1445;52.600;13.328;2024-03-08T08:51:59;78955.28;;;-145.99;100.00
2875;BME280;1445;52.600;13.328;2024-03-08T08:54:24;78951.09;;;-145.99;100.00
2875;BME280;1445;52.600;13.328;2024-03-08T08:56:50;78919.56;;;-145.99;100.00
2875;BME280;1445;52.600;13.328;2024-03-08T08:59:16;78909.06;;;-145.99;100.00
2875;BME280;1445;52.600;13.328;2024-03-08T09:01:45;78900.66;;;-145.99;100.00
2875;BME280;1445;52.600;13.328;2024-03-08T09:04:12;78883.84;;;-145.99;100.00
2875;BME280;1445;52.600;13.328;2024-03-08T09:06:38;78875.44;;;-145.99;100.00
2875;BME280;1445;52.600;13.328;2024-03-08T09:09:06;78833.44;;;-145.99;100.00
2875;BME280;1445;52.600;13.328;2024-03-08T09:11:31;78816.63;;;-145.99;100.00
2875;BME280;1445;52.600;13.328;2024-03-08T09:13:56;78799.81;;;-145.99;100.00
2875;BME280;1445;52.600;13.328;2024-03-08T09:16:22;78755.69;;;-145.99;100.00
2875;BME280;1445;52.600;13.328;2024-03-08T09:18:48;78719.97;;;-145.99;98.38
2875;BME280;1445;52.600;13.328;2024-03-08T09:21:13;78730.47;;;-145.99;96.81
2875;BME280;1445;52.600;13.328;2024-03-08T09:23:39;78711.56;;;-145.99;96.03
2875;BME280;1445;52.600;13.328;2024-03-08T09:26:05;78663.25;;;-145.99;94.05
2875;BME280;1445;52.600;13.328;2024-03-08T09:28:34;78642.22;;;-145.99;92.20
2875;BME280;1445;52.600;13.328;2024-03-08T09:31:00;78633.84;;;-145.99;90.99
2875;BME280;1445;52.600;13.328;2024-03-08T09:33:26;78635.94;;;-145.99;89.12
2875;BME280;1445;52.600;13.328;2024-03-08T09:35:54;78606.53;;;-145.99;89.63
2875;BME280;1445;52.600;13.328;2024-03-08T09:38:19;78577.09;;;-145.99;86.50
2875;BME280;1445;52.600;13.328;2024-03-08T09:40:45;78602.31;;;-145.99;85.71
2875;BME280;1445;52.600;13.328;2024-03-08T09:43:11;78629.63;;;-145.99;85.22
2875;BME280;1445;52.600;13.328;2024-03-08T09:45:37;78593.91;;;-145.99;85.29
2875;BME280;1445;52.600;13.328;2024-03-08T09:48:10;78564.50;;;-145.99;85.04
2875;BME280;1445;52.600;13.328;2024-03-08T09:50:38;78526.69;;;-145.99;85.51
2875;BME280;1445;52.600;13.328;2024-03-08T09:53:03;78488.88;;;-145.99;82.79
2875;BME280;1445;52.600;13.328;2024-03-08T09:55:29;78493.06;;;-145.99;78.75
2875;BME280;1445;52.600;13.328;2024-03-08T09:58:00;78469.97;;;-145.99;77.81
2875;BME280;1445;52.600;13.328;2024-03-08T10:00:46;78434.25;;;-145.99;76.45
2875;BME280;1445;52.600;13.328;2024-03-08T10:03:11;78404.84;;;-145.99;74.73
2875;BME280;1445;52.600;13.328;2024-03-08T10:05:40;78358.63;;;-145.99;72.81
2875;BME280;1445;52.600;13.328;2024-03-08T10:08:06;78341.81;;;-145.99;70.34
2875;BME280;1445;52.600;13.328;2024-03-08T10:10:34;78381.72;;;-145.99;67.59
2875;BME280;1445;52.600;13.328;2024-03-08T10:13:00;78371.22;;;-145.99;68.38
2875;BME280;1445;52.600;13.328;2024-03-08T10:15:28;78329.22;;;-145.99;67.56
2875;BME280;1445;52.600;13.328;2024-03-08T10:17:55;78280.88;;;-145.99;67.36
2875;BME280;1445;52.600;13.328;2024-03-08T10:20:21;78245.19;;;-145.99;67.02
2875;BME280;1445;52.600;13.328;2024-03-08T10:22:46;78287.19;;;-145.99;61.06
2875;BME280;1445;52.600;13.328;2024-03-08T10:25:12;78280.88;;;-145.99;59.44
2875;BME280;1445;52.600;13.328;2024-03-08T10:27:39;78316.59;;;-145.99;59.32
2875;BME280;1445;52.600;13.328;2024-03-08T10:30:08;78339.72;;;-145.99;61.49
2875;BME280;1445;52.600;13.328;2024-03-08T10:32:35;78297.69;;;-145.99;62.13
2875;BME280;1445;52.600;13.328;2024-03-08T10:35:00;78243.06;;;-145.99;59.42
2875;BME280;1445;52.600;13.328;2024-03-08T10:37:27;78222.06;;;-145.99;59.64
2875;BME280;1445;52.600;13.328;2024-03-08T10:40:04;78163.25;;;-145.99;56.96
2875;BME280;1445;52.600;13.328;2024-03-08T10:42:40;78135.94;;;-145.99;53.55
2875;BME280;1445;52.600;13.328;2024-03-08T10:47:41;78188.47;;;-145.99;51.96
2875;BME280;1445;52.600;13.328;2024-03-08T10:50:14;78140.16;;;-145.99;53.07
2875;BME280;1445;52.600;13.328;2024-03-08T10:52:48;78146.44;;;-145.99;53.08
2875;BME280;1445;52.600;13.328;2024-03-08T10:55:15;78119.13;;;-145.99;50.47
2875;BME280;1445;52.600;13.328;2024-03-08T10:57:42;78068.72;;;-145.99;50.42
2875;BME280;1445;52.600;13.328;2024-03-08T11:00:08;78035.09;;;-145.99;48.07
2875;BME280;1445;52.600;13.328;2024-03-08T11:02:36;78014.09;;;-145.99;47.41
2875;BME280;1445;52.600;13.328;2024-03-08T11:05:10;78051.91;;;-145.99;46.82
2875;BME280;1445;52.600;13.328;2024-03-08T11:07:41;78049.81;;;-145.99;48.12
2875;BME280;1445;52.600;13.328;2024-03-08T11:10:19;78014.09;;;-145.99;47.99
2875;BME280;1445;52.600;13.328;2024-03-08T11:12:45;77953.19;;;-145.99;45.85
2875;BME280;1445;52.600;13.328;2024-03-08T11:15:12;77913.28;;;-145.99;44.93
2875;BME280;1445;52.600;13.328;2024-03-08T11:22:41;77816.66;;;-145.99;41.31
2875;BME280;1445;52.600;13.328;2024-03-08T11:25:30;77835.56;;;-145.99;40.55
2875;BME280;1445;52.600;13.328;2024-03-08T11:28:20;77801.94;;;-145.99;40.78
2875;BME280;1445;52.600;13.328;2024-03-08T11:33:26;77728.44;;;-145.99;37.50
2875;BME280;1445;52.600;13.328;2024-03-08T11:35:53;77652.81;;;-145.99;38.01
2875;BME280;1445;52.600;13.328;2024-03-08T11:38:29;77633.91;;;-145.99;37.60
2875;BME280;1445;52.600;13.328;2024-03-08T11:40:56;77568.81;;;-145.99;35.73
2875;BME280;1445;52.600;13.328;2024-03-08T11:43:22;77552.00;;;-145.99;34.93
2875;BME280;1445;52.600;13.328;2024-03-08T11:45:47;77581.41;;;-145.99;34.61
2875;BME280;1445;52.600;13.328;2024-03-08T11:48:13;77552.00;;;-145.99;35.53
2875;BME280;1445;52.600;13.328;2024-03-08T11:50:39;77526.81;;;-145.99;33.65
2875;BME280;1445;52.600;13.328;2024-03-08T11:53:05;77581.41;;;-145.99;34.00
2875;BME280;1445;52.600;13.328;2024-03-08T11:55:31;77539.41;;;-145.99;34.19
2875;BME280;1445;52.600;13.328;2024-03-08T11:58:05;77583.50;;;-145.99;35.09
2875;BME280;1445;52.600;13.328;2024-03-08T12:00:33;77549.91;;;-145.99;37.08
2875;BME280;1445;52.600;13.328;2024-03-08T12:03:09;77516.31;;;-145.99;34.67
2875;BME280;1445;52.600;13.328;2024-03-08T12:05:35;77472.19;;;-145.99;33.34
2875;BME280;1445;52.600;13.328;2024-03-08T12:08:04;77415.50;;;-145.99;33.25
2875;BME280;1445;52.600;13.328;2024-03-08T12:10:33;77528.91;;;-145.99;34.19
2875;BME280;1445;52.600;13.328;2024-03-08T12:13:00;77554.09;;;-145.99;34.85
2875;BME280;1445;52.600;13.328;2024-03-08T12:15:25;77489.00;;;-145.99;34.79
2875;BME280;1445;52.600;13.328;2024-03-08T12:17:53;77419.69;;;-145.99;32.73
2875;BME280;1445;52.600;13.328;2024-03-08T12:20:25;77409.19;;;-145.99;32.67
2875;BME280;1445;52.600;13.328;2024-03-08T12:22:52;77329.38;;;-145.99;33.20
2875;BME280;1445;52.600;13.328;2024-03-08T12:25:18;77308.38;;;-145.99;32.01
2875;BME280;1445;52.600;13.328;2024-03-08T12:27:45;77407.09;;;-145.99;33.39
2875;BME280;1445;52.600;13.328;2024-03-08T12:30:18;77299.97;;;-145.99;30.53
2875;BME280;1445;52.600;13.328;2024-03-08T12:35:22;77419.69;;;-145.99;30.20
2875;BME280;1445;52.600;13.328;2024-03-08T12:37:58;77444.91;;;-145.99;31.23
2875;BME280;1445;52.600;13.328;2024-03-08T12:40:28;77398.69;;;-145.99;31.42
2875;BME280;1445;52.600;13.328;2024-03-08T12:42:57;77396.59;;;-145.99;31.56
2875;BME280;1445;52.600;13.328;2024-03-08T12:45:24;77320.97;;;-145.99;30.61
2875;BME280;1445;52.600;13.328;2024-03-08T12:47:53;77350.38;;;-145.99;30.96
2875;BME280;1445;52.600;13.328;2024-03-08T12:50:20;77268.47;;;-145.99;30.07
2875;BME280;1445;52.600;13.328;2024-03-08T12:52:46;77274.78;;;-145.99;30.22
2875;BME280;1445;52.600;13.328;2024-03-08T12:55:12;77302.09;;;-145.99;29.98
2875;BME280;1445;52.600;13.328;2024-03-08T12:57:38;77281.09;;;-145.99;27.49